createdAt,value
2018-04-30T00:00:36.453Z,37.47
2018-04-30T00:03:04.871Z,38.03
2018-04-30T00:05:35.023Z,37.93
2018-04-30T00:08:03.749Z,36.93
2018-04-30T00:10:32.431Z,37.43
2018-04-30T00:13:01.773Z,34.87
2018-04-30T00:15:31.201Z,39.30
2018-04-30T00:17:59.615Z,37.67
2018-04-30T00:20:28.626Z,37.97
2018-04-30T00:23:00.771Z,47.23
2018-04-30T00:25:30.100Z,42.77
2018-04-30T00:27:59.586Z,38.10
2018-04-30T00:30:28.823Z,37.97
2018-04-30T00:32:57.561Z,40.67
2018-04-30T00:35:26.602Z,42.77
2018-04-30T00:37:56.642Z,39.73
2018-04-30T00:40:25.004Z,41.03
2018-04-30T00:42:54.749Z,38.43
2018-04-30T00:45:24.058Z,41.63
2018-04-30T00:47:55.833Z,36.40
2018-04-30T00:50:26.161Z,33.73
2018-04-30T00:52:55.623Z,36.90
2018-04-30T00:55:25.117Z,42.13
2018-04-30T00:57:57.281Z,35.80
2018-04-30T01:00:26.171Z,36.27
2018-04-30T01:02:55.461Z,35.50
2018-04-30T01:05:24.883Z,36.23
2018-04-30T01:07:54.428Z,34.23
2018-04-30T01:10:23.636Z,33.07
2018-04-30T01:12:54.473Z,34.63
2018-04-30T01:15:23.978Z,37.77
2018-04-30T01:17:54.043Z,35.47
2018-04-30T01:20:23.252Z,35.87
2018-04-30T01:22:52.269Z,35.77
2018-04-30T01:25:20.711Z,33.37
2018-04-30T01:27:49.509Z,36.97
2018-04-30T01:30:20.588Z,32.77
2018-04-30T01:32:49.484Z,35.90
2018-04-30T01:35:17.968Z,31.10
2018-04-30T01:37:46.765Z,36.57
2018-04-30T01:40:17.419Z,38.57
2018-04-30T01:42:46.101Z,36.93
2018-04-30T01:45:15.753Z,38.17
2018-04-30T01:47:44.781Z,36.73
2018-04-30T01:50:13.227Z,36.23
2018-04-30T01:52:41.571Z,35.40
2018-04-30T01:55:10.028Z,39.50
2018-04-30T01:57:39.323Z,41.20
2018-04-30T02:00:07.763Z,34.87
2018-04-30T02:02:38.015Z,42.97
2018-04-30T02:05:06.613Z,36.60
2018-04-30T02:07:34.983Z,39.23
2018-04-30T02:10:03.893Z,37.13
2018-04-30T02:12:33.553Z,35.80
2018-04-30T02:15:02.884Z,35.40
2018-04-30T02:17:31.814Z,37.70
2018-04-30T02:20:01.571Z,35.10
2018-04-30T02:22:29.936Z,38.47
2018-04-30T02:24:58.915Z,38.63
2018-04-30T02:27:28.251Z,39.37
2018-04-30T02:29:56.805Z,37.03
2018-04-30T02:32:25.156Z,35.47
2018-04-30T02:34:54.557Z,37.47
2018-04-30T02:37:23.372Z,38.20
2018-04-30T02:39:52.471Z,34.93
2018-04-30T02:42:22.390Z,34.33
2018-04-30T02:44:51.731Z,37.20
2018-04-30T02:47:21.232Z,36.87
2018-04-30T02:49:49.956Z,40.77
2018-04-30T02:52:18.493Z,34.80
2018-04-30T02:54:46.851Z,35.00
2018-04-30T02:57:15.437Z,34.93
2018-04-30T02:59:44.793Z,36.70
2018-04-30T03:02:14.309Z,38.53
2018-04-30T03:04:42.663Z,38.20
2018-04-30T03:07:11.091Z,33.20
2018-04-30T03:09:39.560Z,39.97
2018-04-30T03:12:07.903Z,34.40
2018-04-30T03:14:37.838Z,31.23
2018-04-30T03:17:07.173Z,37.33
2018-04-30T03:19:35.579Z,37.30
2018-04-30T03:22:04.051Z,37.67
2018-04-30T03:24:32.431Z,35.03
2018-04-30T03:27:00.793Z,38.13
2018-04-30T03:29:29.514Z,36.53
2018-04-30T03:31:57.996Z,36.50
2018-04-30T03:34:26.675Z,35.40
2018-04-30T03:36:55.033Z,37.20
2018-04-30T03:39:24.174Z,38.03
2018-04-30T03:41:54.051Z,39.60
2018-04-30T03:44:22.726Z,35.37
2018-04-30T03:46:51.540Z,35.80
2018-04-30T03:49:20.345Z,38.03
2018-04-30T03:51:48.700Z,31.23
2018-04-30T03:54:17.811Z,36.30
2018-04-30T03:56:46.436Z,97.83
2018-04-30T03:59:15.360Z,36.63
2018-04-30T04:01:55.473Z,117.50
2018-04-30T04:04:35.811Z,31.37
2018-04-30T04:07:04.269Z,36.30
2018-04-30T04:09:34.035Z,33.80
2018-04-30T04:12:02.850Z,33.37
2018-04-30T04:14:31.281Z,34.50
2018-04-30T04:16:59.643Z,27.10
2018-04-30T04:19:28.020Z,31.03
2018-04-30T04:21:56.387Z,34.27
2018-04-30T04:24:25.072Z,35.30
2018-04-30T04:26:53.499Z,34.57
2018-04-30T04:29:22.314Z,30.50
2018-04-30T04:31:51.338Z,37.23
2018-04-30T04:34:19.760Z,34.00
2018-04-30T04:36:48.660Z,36.83
2018-04-30T04:39:17.395Z,31.80
2018-04-30T04:41:46.605Z,29.23
2018-04-30T04:44:15.104Z,27.97
2018-04-30T04:46:43.516Z,35.27
2018-04-30T04:49:12.394Z,35.10
2018-04-30T04:51:41.393Z,30.93
2018-04-30T04:54:11.030Z,30.63
2018-04-30T04:56:39.464Z,29.30
2018-04-30T04:59:07.974Z,31.53
2018-04-30T05:01:37.376Z,28.33
2018-04-30T05:04:05.863Z,29.50
2018-04-30T05:06:34.233Z,32.20
2018-04-30T05:09:02.594Z,30.23
2018-04-30T05:11:31.711Z,29.03
2018-04-30T05:14:00.653Z,32.13
2018-04-30T05:16:29.113Z,28.83
2018-04-30T05:18:57.687Z,55.83
2018-04-30T05:21:26.062Z,35.60
2018-04-30T05:23:54.956Z,25.70
2018-04-30T05:26:23.323Z,31.47
2018-04-30T05:28:51.772Z,26.13
2018-04-30T05:31:20.131Z,23.73
2018-04-30T05:33:50.342Z,20.03
2018-04-30T05:36:18.681Z,20.63
2018-04-30T05:38:47.168Z,21.00
2018-04-30T05:41:16.174Z,26.43
2018-04-30T05:43:44.548Z,20.63
2018-04-30T05:46:13.156Z,19.97
2018-04-30T05:48:41.809Z,22.57
2018-04-30T05:51:10.500Z,21.97
2018-04-30T05:53:39.169Z,20.87
2018-04-30T05:56:07.615Z,20.43
2018-04-30T05:58:35.990Z,19.30
2018-04-30T06:01:04.596Z,14.87
2018-04-30T06:03:33.536Z,19.43
2018-04-30T06:06:01.898Z,14.97
2018-04-30T06:08:31.127Z,19.77
2018-04-30T06:10:59.927Z,22.10
2018-04-30T06:13:28.333Z,14.80
2018-04-30T06:15:56.912Z,16.63
2018-04-30T06:18:25.276Z,16.17
2018-04-30T06:20:53.644Z,14.07
2018-04-30T06:23:22.316Z,17.97
2018-04-30T06:25:51.521Z,13.53
2018-04-30T06:28:20.488Z,13.93
2018-04-30T06:30:49.304Z,14.27
2018-04-30T06:33:19.395Z,11.93
2018-04-30T06:35:48.306Z,21.03
2018-04-30T06:38:17.231Z,12.07
2018-04-30T06:40:45.591Z,12.37
2018-04-30T06:43:14.026Z,14.03
2018-04-30T06:45:42.827Z,13.30
2018-04-30T06:48:11.263Z,16.17
2018-04-30T06:50:40.226Z,12.00
2018-04-30T06:53:08.790Z,18.47
2018-04-30T06:55:37.335Z,13.63
2018-04-30T06:58:05.767Z,10.40
2018-04-30T07:00:34.203Z,10.80
2018-04-30T07:03:02.879Z,22.73
2018-04-30T07:05:31.302Z,9.47
2018-04-30T07:07:59.700Z,10.87
2018-04-30T07:10:28.054Z,8.40
2018-04-30T07:12:56.419Z,11.90
2018-04-30T07:15:24.947Z,14.67
2018-04-30T07:17:53.398Z,9.83
2018-04-30T07:20:22.043Z,9.73
2018-04-30T07:22:52.195Z,10.23
2018-04-30T07:25:21.473Z,10.67
2018-04-30T07:27:50.777Z,11.00
2018-04-30T07:30:19.456Z,13.07
2018-04-30T07:32:47.834Z,11.90
2018-04-30T07:35:16.678Z,11.37
2018-04-30T07:37:45.039Z,11.30
2018-04-30T07:40:13.952Z,17.30
2018-04-30T07:42:43.437Z,20.23
2018-04-30T07:45:12.028Z,10.93
2018-04-30T07:47:43.091Z,11.30
2018-04-30T07:50:12.829Z,11.07
2018-04-30T07:52:42.056Z,12.77
2018-04-30T07:55:11.634Z,12.50
2018-04-30T07:57:41.139Z,11.60
2018-04-30T08:00:09.664Z,14.10
2018-04-30T08:02:38.837Z,8.80
2018-04-30T08:05:07.989Z,12.67
2018-04-30T08:07:36.365Z,13.83
2018-04-30T08:10:04.954Z,16.63
2018-04-30T08:12:34.439Z,11.37
2018-04-30T08:15:04.428Z,13.53
2018-04-30T08:17:35.305Z,10.77
2018-04-30T08:20:03.663Z,15.60
2018-04-30T08:22:36.959Z,11.10
2018-04-30T08:25:05.919Z,12.40
2018-04-30T08:27:34.409Z,10.90
2018-04-30T08:30:03.285Z,10.40
2018-04-30T08:32:31.949Z,9.67
2018-04-30T08:35:00.398Z,13.60
2018-04-30T08:37:29.020Z,11.53
2018-04-30T08:39:57.459Z,12.90
2018-04-30T08:42:25.926Z,10.90
2018-04-30T08:44:56.104Z,10.37
2018-04-30T08:47:24.835Z,13.20
2018-04-30T08:49:53.194Z,11.67
2018-04-30T08:52:21.577Z,10.27
2018-04-30T08:54:50.219Z,24.70
2018-04-30T08:57:19.523Z,18.90
2018-04-30T08:59:48.387Z,9.30
2018-04-30T09:02:16.813Z,11.93
2018-04-30T09:04:45.165Z,9.23
2018-04-30T09:07:13.520Z,11.33
2018-04-30T09:09:42.109Z,12.73
2018-04-30T09:12:10.391Z,9.73
2018-04-30T09:14:40.002Z,13.40
2018-04-30T09:17:08.503Z,13.40
2018-04-30T09:19:37.215Z,11.43
2018-04-30T09:22:08.323Z,13.07
2018-04-30T09:24:37.652Z,11.37
2018-04-30T09:27:06.096Z,11.43
2018-04-30T09:29:35.457Z,12.50
2018-04-30T09:32:04.390Z,15.63
2018-04-30T09:34:32.765Z,11.70
2018-04-30T09:37:01.145Z,13.80
2018-04-30T09:39:29.519Z,11.27
2018-04-30T09:41:58.382Z,11.30
2018-04-30T09:44:26.742Z,9.87
2018-04-30T09:46:55.447Z,18.63
2018-04-30T09:49:24.069Z,10.53
2018-04-30T09:51:52.429Z,11.57
2018-04-30T09:54:20.779Z,12.27
2018-04-30T09:56:49.127Z,11.43
2018-04-30T09:59:17.508Z,10.40
2018-04-30T10:01:46.090Z,12.97
2018-04-30T10:04:14.577Z,16.87
2018-04-30T10:06:45.930Z,14.17
2018-04-30T10:09:14.399Z,20.83
2018-04-30T10:11:43.147Z,11.23
2018-04-30T10:14:13.583Z,10.80
2018-04-30T10:16:42.034Z,9.70
2018-04-30T10:21:44.092Z,16.93
2018-04-30T10:24:16.562Z,14.00
2018-04-30T10:26:44.997Z,11.80
2018-04-30T10:29:13.373Z,11.10
2018-04-30T10:31:41.851Z,10.70
2018-04-30T10:34:11.597Z,12.37
2018-04-30T10:36:40.076Z,9.20
2018-04-30T10:39:08.462Z,14.70
2018-04-30T10:41:37.143Z,13.27
2018-04-30T10:44:05.665Z,13.93
2018-04-30T10:46:34.068Z,11.23
2018-04-30T10:49:02.436Z,13.17
2018-04-30T10:51:31.371Z,15.47
2018-04-30T10:53:59.765Z,9.40
2018-04-30T10:56:28.136Z,17.23
2018-04-30T10:58:56.863Z,11.27
2018-04-30T11:01:25.251Z,11.60
2018-04-30T11:03:53.631Z,12.43
2018-04-30T11:06:23.675Z,10.80
2018-04-30T11:08:52.411Z,9.13
2018-04-30T11:11:20.793Z,13.70
2018-04-30T11:13:49.259Z,9.33
2018-04-30T11:16:17.962Z,9.33
2018-04-30T11:18:46.376Z,7.87
2018-04-30T11:21:14.776Z,15.80
2018-04-30T11:23:43.522Z,10.17
2018-04-30T11:26:11.990Z,10.07
2018-04-30T11:28:40.791Z,10.73
2018-04-30T11:31:09.155Z,12.13
2018-04-30T11:33:37.518Z,12.73
2018-04-30T11:36:06.927Z,11.27
2018-04-30T11:38:35.497Z,14.63
2018-04-30T11:41:04.829Z,11.90
2018-04-30T11:43:33.199Z,13.83
2018-04-30T11:46:01.568Z,11.93
2018-04-30T11:48:29.970Z,12.70
2018-04-30T11:50:58.340Z,10.77
2018-04-30T11:53:26.864Z,9.03
2018-04-30T11:55:55.580Z,10.30
2018-04-30T11:58:24.278Z,8.37
2018-04-30T12:00:52.753Z,19.80
2018-04-30T12:03:21.177Z,10.47
2018-04-30T12:05:49.977Z,11.70
2018-04-30T12:08:18.757Z,11.90
2018-04-30T12:10:47.563Z,8.60
2018-04-30T12:13:16.440Z,8.40
2018-04-30T12:15:44.800Z,6.90
2018-04-30T12:18:13.412Z,15.83
2018-04-30T12:20:41.890Z,8.17
2018-04-30T12:23:10.270Z,10.67
2018-04-30T12:25:38.672Z,10.47
2018-04-30T12:28:07.270Z,8.17
2018-04-30T12:30:36.057Z,13.07
2018-04-30T12:33:04.839Z,14.13
2018-04-30T12:35:33.352Z,8.57
2018-04-30T12:38:02.823Z,7.77
2018-04-30T12:40:31.197Z,15.17
2018-04-30T12:45:36.581Z,15.90
2018-04-30T12:48:06.218Z,10.13
2018-04-30T12:50:35.964Z,12.20
2018-04-30T12:53:05.290Z,12.77
2018-04-30T12:58:07.223Z,16.37
2018-04-30T13:00:35.643Z,8.77
2018-04-30T13:03:04.981Z,12.33
2018-04-30T13:05:34.597Z,10.90
2018-04-30T13:08:02.968Z,14.47
2018-04-30T13:10:31.923Z,7.93
2018-04-30T13:13:01.371Z,11.50
2018-04-30T13:15:34.554Z,17.47
2018-04-30T13:18:02.958Z,10.90
2018-04-30T13:20:33.899Z,8.87
2018-04-30T13:23:03.706Z,13.10
2018-04-30T13:27:11.780Z,13.15
2018-04-30T13:29:40.259Z,17.87
2018-04-30T13:32:08.668Z,13.77
2018-04-30T13:34:37.024Z,10.53
2018-04-30T13:37:05.389Z,13.13
2018-04-30T13:39:34.008Z,12.37
2018-04-30T13:42:02.360Z,10.83
2018-04-30T13:44:30.805Z,11.67
2018-04-30T13:46:59.167Z,12.73
2018-04-30T13:49:27.533Z,16.03
2018-04-30T13:51:55.892Z,14.53
2018-04-30T13:54:24.348Z,14.03
2018-04-30T13:56:53.655Z,9.83
2018-04-30T13:59:22.031Z,11.97
2018-04-30T14:01:50.586Z,10.53
2018-04-30T14:04:18.927Z,22.40
2018-04-30T14:06:47.643Z,13.00
2018-04-30T14:09:16.051Z,15.83
2018-04-30T14:11:44.419Z,13.73
2018-04-30T14:14:12.786Z,9.87
2018-04-30T14:16:41.139Z,13.57
2018-04-30T14:19:09.487Z,14.20
2018-04-30T14:21:38.196Z,15.43
2018-04-30T14:24:06.961Z,12.10
2018-04-30T14:26:36.042Z,17.73
2018-04-30T14:29:04.395Z,18.50
2018-04-30T14:31:32.753Z,20.33
2018-04-30T14:34:01.403Z,13.23
2018-04-30T14:36:30.117Z,11.83
